createdAt,value
2023-04-15T00:01:49.875Z,100904.28
2023-04-15T00:04:16.547Z,100916.53
2023-04-15T00:06:43.109Z,100917.47
2023-04-15T00:09:09.517Z,100900.81
2023-04-15T00:11:35.921Z,100901.66
2023-04-15T00:14:02.353Z,100910.63
2023-04-15T00:16:28.841Z,100904.69
2023-04-15T00:18:55.539Z,100902.31
2023-04-15T00:21:22.131Z,100895.91
2023-04-15T00:23:52.643Z,100891.34
2023-04-15T00:26:19.674Z,100902.03
2023-04-15T00:28:46.741Z,100905.91
2023-04-15T00:31:13.332Z,100902.72
2023-04-15T00:33:40.120Z,100899.53
2023-04-15T00:36:07.323Z,100907.00
2023-04-15T00:38:33.776Z,100900.94
2023-04-15T00:41:00.228Z,100871.94
2023-04-15T00:43:26.665Z,100910.09
2023-04-15T00:45:54.505Z,100910.34
2023-04-15T00:48:21.279Z,100894.25
2023-04-15T00:50:47.713Z,100902.28
2023-04-15T00:53:14.101Z,100904.47
2023-04-15T00:55:40.595Z,100905.88
2023-04-15T00:58:07.135Z,100905.88
2023-04-15T01:00:34.568Z,100788.22
2023-04-15T01:03:01.734Z,100874.75
2023-04-15T01:05:28.542Z,100912.81
2023-04-15T01:07:55.430Z,100918.75
2023-04-15T01:10:22.170Z,100900.41
2023-04-15T01:12:48.726Z,100916.28
2023-04-15T01:15:16.047Z,100875.00
2023-04-15T01:17:42.752Z,100912.88
2023-04-15T01:20:12.568Z,100917.88
2023-04-15T01:22:39.343Z,100901.44
2023-04-15T01:25:18.768Z,100872.56
2023-04-15T01:27:45.623Z,100919.16
2023-04-15T01:30:12.206Z,100905.63
2023-04-15T01:32:38.782Z,100908.41
2023-04-15T01:35:05.768Z,100911.38
2023-04-15T01:37:32.579Z,100921.16
2023-04-15T01:39:59.001Z,100908.06
2023-04-15T01:42:25.403Z,100933.59
2023-04-15T01:44:51.992Z,100903.78
2023-04-15T01:47:18.576Z,100911.91
2023-04-15T01:49:44.957Z,100936.59
2023-04-15T01:52:11.441Z,100923.59
2023-04-15T01:54:37.868Z,100911.31
2023-04-15T01:57:05.533Z,100924.34
2023-04-15T01:59:32.169Z,100914.59
2023-04-15T02:01:59.041Z,100929.47
2023-04-15T02:04:25.586Z,100922.91
2023-04-15T02:06:52.007Z,100916.78
2023-04-15T02:09:18.463Z,100897.00
2023-04-15T02:11:46.240Z,100916.31
2023-04-15T02:14:12.719Z,100912.16
2023-04-15T02:16:39.207Z,100944.72
2023-04-15T02:19:05.707Z,100923.59
2023-04-15T02:21:32.174Z,100932.78
2023-04-15T02:23:58.588Z,100923.38
2023-04-15T02:26:25.353Z,100927.00
2023-04-15T02:28:51.761Z,100941.78
2023-04-15T02:31:18.504Z,100916.31
2023-04-15T02:33:45.371Z,100947.69
2023-04-15T02:36:12.442Z,100904.16
2023-04-15T02:38:41.281Z,100955.88
2023-04-15T02:41:08.606Z,100949.22
2023-04-15T02:43:35.146Z,100959.09
2023-04-15T02:46:01.612Z,100952.47
2023-04-15T02:48:28.413Z,100945.53
2023-04-15T02:51:11.161Z,100972.25
2023-04-15T02:53:37.580Z,100971.56
2023-04-15T02:56:04.371Z,100977.75
2023-04-15T02:58:30.770Z,100977.03
2023-04-15T03:00:57.649Z,100968.47
2023-04-15T03:03:24.248Z,100980.38
2023-04-15T03:05:50.784Z,100991.59
2023-04-15T03:08:17.203Z,100983.72
2023-04-15T03:10:43.585Z,100985.06
2023-04-15T03:13:10.065Z,100977.41
2023-04-15T03:15:36.503Z,100991.97
2023-04-15T03:18:03.059Z,100972.44
2023-04-15T03:20:29.640Z,100969.69
2023-04-15T03:22:56.048Z,100987.47
2023-04-15T03:25:22.551Z,100980.78
2023-04-15T03:27:48.983Z,100992.72
2023-04-15T03:30:15.454Z,100986.88
2023-04-15T03:32:41.863Z,101002.03
2023-04-15T03:35:08.725Z,101005.25
2023-04-15T03:37:35.693Z,101002.13
2023-04-15T03:40:02.386Z,100994.50
2023-04-15T03:42:28.806Z,100993.91
2023-04-15T03:44:55.226Z,101009.31
2023-04-15T03:47:21.701Z,100991.28
2023-04-15T03:49:48.143Z,101013.50
2023-04-15T03:52:14.539Z,101022.66
2023-04-15T03:54:40.978Z,101019.06
2023-04-15T03:57:07.451Z,101020.75
2023-04-15T03:59:33.914Z,101002.16
2023-04-15T04:02:00.460Z,101036.88
2023-04-15T04:04:26.952Z,101023.84
2023-04-15T04:06:53.549Z,101032.91
2023-04-15T04:09:19.992Z,101039.59
2023-04-15T04:11:46.648Z,101018.34
2023-04-15T04:14:13.071Z,101019.78
2023-04-15T04:16:39.514Z,101038.66
2023-04-15T04:19:06.327Z,101034.56
2023-04-15T04:21:34.192Z,101038.75
2023-04-15T04:24:00.652Z,101051.63
2023-04-15T04:26:27.103Z,101046.03
2023-04-15T04:28:53.539Z,101049.72
2023-04-15T04:31:20.142Z,101041.44
2023-04-15T04:33:46.611Z,101060.81
2023-04-15T04:36:13.039Z,101046.09
2023-04-15T04:38:39.451Z,101033.41
2023-04-15T04:41:06.204Z,101068.63
2023-04-15T04:43:32.591Z,101070.75
2023-04-15T04:45:59.052Z,101075.63
2023-04-15T04:48:25.972Z,101086.94
2023-04-15T04:50:52.718Z,101082.88
2023-04-15T04:53:19.208Z,101075.72
2023-04-15T04:55:45.618Z,101096.84
2023-04-15T04:58:12.503Z,101092.16
2023-04-15T05:00:40.391Z,101103.16
2023-04-15T05:03:07.111Z,101108.53
2023-04-15T05:05:35.490Z,101113.47
2023-04-15T05:08:01.986Z,101119.44
2023-04-15T05:10:28.408Z,101111.41
2023-04-15T05:12:54.826Z,101096.38
2023-04-15T05:15:21.486Z,101125.97
2023-04-15T05:17:47.931Z,101099.75
2023-04-15T05:20:14.520Z,101129.06
2023-04-15T05:22:41.043Z,101135.94
2023-04-15T05:25:08.596Z,101131.16
2023-04-15T05:27:35.024Z,101145.38
2023-04-15T05:30:01.919Z,101105.69
2023-04-15T05:32:28.404Z,101145.84
2023-04-15T05:34:54.817Z,101156.13
2023-04-15T05:37:22.277Z,101159.34
2023-04-15T05:39:49.107Z,101166.47
2023-04-15T05:42:15.590Z,101166.16
2023-04-15T05:44:42.153Z,101170.31
2023-04-15T05:47:09.705Z,101157.56
2023-04-15T05:49:36.356Z,101191.03
2023-04-15T05:52:03.413Z,101187.50
2023-04-15T05:54:29.853Z,101178.13
2023-04-15T05:56:57.630Z,101177.09
2023-04-15T05:59:24.065Z,101201.31
2023-04-15T06:01:52.137Z,101190.41
2023-04-15T06:04:18.680Z,101200.06
2023-04-15T06:06:45.198Z,101202.06
2023-04-15T06:09:11.765Z,101208.31
2023-04-15T06:11:38.170Z,101201.81
2023-04-15T06:14:04.576Z,101210.81
2023-04-15T06:16:31.165Z,101186.13
2023-04-15T06:18:57.583Z,101222.66
2023-04-15T06:21:24.006Z,101215.25
2023-04-15T06:23:50.618Z,101229.63
2023-04-15T06:26:17.033Z,101215.13
2023-04-15T06:28:43.436Z,101241.53
2023-04-15T06:31:09.908Z,101232.91
2023-04-15T06:33:36.897Z,101257.19
2023-04-15T06:36:03.407Z,101254.88
2023-04-15T06:38:29.988Z,101256.28
2023-04-15T06:40:56.372Z,101221.00
2023-04-15T06:43:22.787Z,101252.53
2023-04-15T06:45:49.252Z,101248.81
2023-04-15T06:48:15.818Z,101262.91
2023-04-15T06:50:42.555Z,101280.00
2023-04-15T06:53:08.956Z,101266.59
2023-04-15T06:55:35.438Z,101274.25
2023-04-15T06:58:02.039Z,101273.66
2023-04-15T07:00:28.802Z,101276.16
2023-04-15T07:02:55.783Z,101290.28
2023-04-15T07:05:22.491Z,101298.19
2023-04-15T07:07:48.892Z,101284.53
2023-04-15T07:10:15.836Z,101289.31
2023-04-15T07:12:42.375Z,101305.63
2023-04-15T07:15:09.049Z,101302.28
2023-04-15T07:17:35.512Z,101317.72
2023-04-15T07:20:02.579Z,101329.44
2023-04-15T07:22:29.059Z,101322.41
2023-04-15T07:24:55.770Z,101304.34
2023-04-15T07:27:22.425Z,101324.09
2023-04-15T07:29:49.088Z,101334.53
2023-04-15T07:32:15.536Z,101335.84
2023-04-15T07:34:42.220Z,101337.28
2023-04-15T07:37:08.727Z,101329.50
2023-04-15T07:39:35.185Z,101340.75
2023-04-15T07:42:02.361Z,101344.94
2023-04-15T07:44:28.927Z,101347.91
2023-04-15T07:46:56.494Z,101364.66
2023-04-15T07:49:23.361Z,101338.00
2023-04-15T07:51:50.536Z,101355.94
2023-04-15T07:54:17.148Z,101370.44
2023-04-15T07:56:43.569Z,101370.16
2023-04-15T07:59:10.434Z,101375.72
2023-04-15T08:01:37.687Z,101381.22
2023-04-15T08:04:04.223Z,101370.44
2023-04-15T08:06:30.873Z,101375.34
2023-04-15T08:08:57.545Z,101376.06
2023-04-15T08:11:24.578Z,101397.69
2023-04-15T08:13:52.672Z,101393.28
2023-04-15T08:16:23.503Z,101401.28
2023-04-15T08:18:51.498Z,101409.53
2023-04-15T08:21:19.281Z,101392.53
2023-04-15T08:23:47.396Z,101401.72
2023-04-15T08:26:14.235Z,101409.72
2023-04-15T08:28:41.727Z,101379.38
2023-04-15T08:31:09.439Z,101420.72
2023-04-15T08:33:36.298Z,101415.41
2023-04-15T08:36:03.365Z,101408.94
2023-04-15T08:38:29.939Z,101405.91
2023-04-15T08:40:59.945Z,101426.50
2023-04-15T08:43:34.928Z,101414.84
2023-04-15T08:46:02.343Z,101439.00
2023-04-15T08:48:29.728Z,101422.75
2023-04-15T08:50:56.751Z,101433.84
2023-04-15T08:53:24.764Z,101444.47
2023-04-15T08:55:53.767Z,101453.56
2023-04-15T08:58:20.379Z,101452.06
2023-04-15T09:00:48.653Z,101457.09
2023-04-15T09:03:17.545Z,101450.88
2023-04-15T09:05:44.112Z,101450.75
2023-04-15T09:08:10.551Z,101462.38
2023-04-15T09:10:37.007Z,101470.84
2023-04-15T09:13:04.519Z,101466.72
2023-04-15T09:15:33.003Z,101455.72
2023-04-15T09:17:59.481Z,101470.34
2023-04-15T09:20:26.379Z,101469.75
2023-04-15T09:22:52.865Z,101478.25
2023-04-15T09:25:22.370Z,101485.66
2023-04-15T09:27:49.838Z,101470.88
2023-04-15T09:30:16.882Z,101484.81
2023-04-15T09:33:01.101Z,101490.41
2023-04-15T09:35:28.761Z,101481.38
2023-04-15T09:38:09.843Z,101483.19
2023-04-15T09:40:41.852Z,101437.94
2023-04-15T09:43:09.874Z,101499.66
2023-04-15T09:45:37.105Z,101479.66
2023-04-15T09:48:18.763Z,101492.59
2023-04-15T09:50:45.203Z,101474.16
2023-04-15T09:53:15.492Z,101525.19
2023-04-15T09:55:50.383Z,101471.66
2023-04-15T09:58:30.137Z,101527.41
2023-04-15T10:00:58.340Z,101523.22
2023-04-15T10:03:30.050Z,101532.56
2023-04-15T10:05:59.013Z,101510.06
2023-04-15T10:08:27.963Z,101520.03
2023-04-15T10:10:55.143Z,101523.94
2023-04-15T10:13:26.822Z,101531.63
2023-04-15T10:15:59.061Z,101482.28
2023-04-15T10:18:28.121Z,101537.56
2023-04-15T10:20:55.526Z,101540.16
2023-04-15T10:23:23.215Z,101540.69
2023-04-15T10:25:52.606Z,101540.44
2023-04-15T10:28:20.183Z,101544.44
2023-04-15T10:30:48.003Z,101537.34
2023-04-15T10:33:17.171Z,101531.91
2023-04-15T10:35:44.114Z,101504.72
2023-04-15T10:38:34.037Z,101560.31
2023-04-15T10:41:37.810Z,101559.72
2023-04-15T10:44:05.388Z,101570.84
2023-04-15T10:46:43.255Z,101576.72
2023-04-15T10:49:14.420Z,101575.06
2023-04-15T10:51:42.766Z,101566.13
2023-04-15T10:54:24.294Z,101580.31
2023-04-15T10:57:08.916Z,101541.63
2023-04-15T10:59:59.288Z,101596.50
2023-04-15T11:02:45.346Z,101590.72
2023-04-15T11:05:16.370Z,101529.81
2023-04-15T11:07:56.084Z,101591.94
2023-04-15T11:10:25.555Z,101599.97
2023-04-15T11:12:54.214Z,101550.94
2023-04-15T11:15:31.050Z,101588.66
2023-04-15T11:18:12.531Z,101585.91
2023-04-15T11:20:41.224Z,101602.06
2023-04-15T11:23:14.122Z,101595.53
2023-04-15T11:25:42.821Z,101580.06
2023-04-15T11:28:09.448Z,101599.03
2023-04-15T11:30:37.481Z,101592.22
2023-04-15T11:33:06.253Z,101583.03
2023-04-15T11:35:33.422Z,101608.25
2023-04-15T11:38:03.904Z,101608.25
2023-04-15T11:40:31.714Z,101617.22
2023-04-15T11:43:09.368Z,101599.91
2023-04-15T11:45:37.328Z,101628.03
2023-04-15T11:48:11.070Z,101615.47
2023-04-15T11:50:40.860Z,101600.41
2023-04-15T11:53:10.088Z,101636.50
2023-04-15T11:55:49.341Z,101600.28
2023-04-15T11:58:20.228Z,101643.06
2023-04-15T12:00:55.442Z,101647.63
2023-04-15T12:03:23.824Z,101652.97
2023-04-15T12:06:13.389Z,101645.91
2023-04-15T12:09:03.854Z,101660.34
2023-04-15T12:11:37.812Z,101641.72
2023-04-15T12:14:11.300Z,101641.13
2023-04-15T12:16:54.157Z,101639.63
2023-04-15T12:19:28.775Z,101653.59
2023-04-15T12:22:04.150Z,101649.97
2023-04-15T12:24:35.907Z,101627.25
2023-04-15T12:27:11.215Z,101662.25
2023-04-15T12:29:39.685Z,101646.50
2023-04-15T12:32:11.137Z,101663.78
2023-04-15T12:34:42.377Z,101645.66
2023-04-15T12:37:11.261Z,101622.94
2023-04-15T12:39:39.879Z,101674.25
2023-04-15T12:42:07.066Z,101678.00
2023-04-15T12:44:34.208Z,101685.00
2023-04-15T12:47:00.741Z,101682.72
2023-04-15T12:49:28.407Z,101701.34
2023-04-15T12:51:56.759Z,101636.91
2023-04-15T12:54:23.405Z,101661.44
2023-04-15T12:56:51.183Z,101693.31
2023-04-15T12:59:18.560Z,101697.66
2023-04-15T13:01:45.582Z,101695.72
2023-04-15T13:04:12.220Z,101689.16
2023-04-15T13:06:38.706Z,101713.28
2023-04-15T13:09:06.143Z,101724.44
2023-04-15T13:11:36.705Z,101724.25
2023-04-15T13:14:08.960Z,101723.16
2023-04-15T13:16:35.902Z,101712.00
2023-04-15T13:19:03.626Z,101711.78
2023-04-15T13:21:32.215Z,101721.22
2023-04-15T13:23:59.358Z,101739.91
2023-04-15T13:26:25.777Z,101738.56
2023-04-15T13:28:52.453Z,101730.28
2023-04-15T13:31:18.863Z,101713.03
2023-04-15T13:33:45.417Z,101730.44
2023-04-15T13:36:12.002Z,101729.09
2023-04-15T13:38:38.474Z,101747.72
2023-04-15T13:41:05.020Z,101755.22
2023-04-15T13:43:33.623Z,101734.84
2023-04-15T13:46:00.217Z,101742.84
2023-04-15T13:48:26.679Z,101657.53
2023-04-15T13:50:53.072Z,101773.94
2023-04-15T13:53:19.536Z,101775.22
2023-04-15T13:55:46.321Z,101756.84
2023-04-15T13:58:12.721Z,101764.34
2023-04-15T14:00:39.219Z,101790.47
2023-04-15T14:03:05.828Z,101776.28
2023-04-15T14:05:32.865Z,101790.13
2023-04-15T14:08:00.001Z,101796.41
2023-04-15T14:10:26.389Z,101779.78
2023-04-15T14:12:52.846Z,101817.63
2023-04-15T14:15:19.311Z,101792.59
2023-04-15T14:17:45.953Z,101811.78
2023-04-15T14:20:13.541Z,101823.53
2023-04-15T14:22:41.109Z,101818.03
2023-04-15T14:25:07.872Z,101799.94
2023-04-15T14:27:34.304Z,101815.03
2023-04-15T14:30:00.875Z,101818.31
2023-04-15T14:32:27.307Z,101817.84
2023-04-15T14:34:53.799Z,101825.97
2023-04-15T14:37:20.459Z,101843.75
2023-04-15T14:39:46.864Z,101833.44
2023-04-15T14:42:13.273Z,101843.47
2023-04-15T14:44:39.697Z,101825.47
2023-04-15T14:47:06.227Z,101836.78
2023-04-15T14:49:32.772Z,101837.34
2023-04-15T14:51:59.179Z,101825.34
2023-04-15T14:54:25.724Z,101854.53
2023-04-15T14:56:52.262Z,101853.31
2023-04-15T14:59:18.661Z,101858.31
2023-04-15T15:01:45.534Z,101842.09
2023-04-15T15:04:12.983Z,101849.41
2023-04-15T15:06:40.135Z,101860.47
2023-04-15T15:09:06.774Z,101873.41
2023-04-15T15:11:33.452Z,101854.19
2023-04-15T15:13:59.988Z,101869.22
2023-04-15T15:16:27.673Z,101838.94
2023-04-15T15:18:54.120Z,101862.72
2023-04-15T15:21:20.622Z,101871.47
2023-04-15T15:23:48.251Z,101872.94
2023-04-15T15:26:15.064Z,101878.66
2023-04-15T15:28:42.196Z,101866.72
2023-04-15T15:31:08.838Z,101887.63
2023-04-15T15:33:35.301Z,101892.03
2023-04-15T15:36:02.163Z,101873.09
2023-04-15T15:38:28.582Z,101902.25
2023-04-15T15:40:55.012Z,101893.56
2023-04-15T15:43:21.471Z,101904.91
2023-04-15T15:45:51.627Z,101922.63
2023-04-15T15:48:18.541Z,101905.41
2023-04-15T15:50:45.762Z,101914.63
2023-04-15T15:53:12.436Z,101913.41
2023-04-15T15:55:38.847Z,101923.94
2023-04-15T15:58:05.257Z,101945.03
2023-04-15T16:00:31.705Z,101929.59
2023-04-15T16:05:27.565Z,101939.84
2023-04-15T16:07:54.092Z,101945.47
2023-04-15T16:10:20.536Z,101941.69
2023-04-15T16:12:47.048Z,101929.09
2023-04-15T16:15:13.876Z,101956.78
2023-04-15T16:17:40.352Z,101951.78
2023-04-15T16:20:07.408Z,101955.19
2023-04-15T16:22:37.361Z,101962.69
2023-04-15T16:25:04.067Z,101957.50
2023-04-15T16:27:30.528Z,101939.22
2023-04-15T16:29:57.024Z,101973.44
2023-04-15T16:32:23.612Z,101911.69
2023-04-15T16:34:50.085Z,101959.03
2023-04-15T16:37:16.516Z,101973.75
2023-04-15T16:39:42.999Z,101976.50
2023-04-15T16:42:10.167Z,101972.31
2023-04-15T16:44:36.594Z,101974.19
2023-04-15T16:47:03.155Z,101992.41
2023-04-15T16:49:30.284Z,101990.84
2023-04-15T16:51:57.244Z,101996.97
2023-04-15T16:54:23.664Z,101976.94
2023-04-15T16:56:50.075Z,101996.97
2023-04-15T16:59:16.607Z,101956.84
2023-04-15T17:01:43.087Z,102014.84
2023-04-15T17:04:09.605Z,101996.75
2023-04-15T17:06:36.258Z,101998.00
2023-04-15T17:09:02.916Z,101996.63
2023-04-15T17:11:29.425Z,102019.06
2023-04-15T17:13:55.941Z,102014.34
2023-04-15T17:16:22.440Z,102012.72
2023-04-15T17:18:50.427Z,102000.09
2023-04-15T17:21:17.645Z,102018.84
2023-04-15T17:23:44.112Z,102013.44
2023-04-15T17:26:10.714Z,101992.06
2023-04-15T17:28:37.242Z,102014.72
2023-04-15T17:31:04.678Z,102042.19
2023-04-15T17:33:56.265Z,102031.78
2023-04-15T17:36:17.530Z,102047.78
2023-04-15T17:38:43.954Z,102028.16
2023-04-15T17:41:10.643Z,102047.44
2023-04-15T17:43:37.147Z,102035.22
2023-04-15T17:46:03.699Z,102020.16
2023-04-15T17:48:30.154Z,102030.56
2023-04-15T17:50:56.663Z,102029.72
2023-04-15T17:53:23.121Z,102027.31
2023-04-15T17:55:53.037Z,102042.66
2023-04-15T17:58:20.109Z,102053.72
2023-04-15T18:00:46.912Z,102008.13
2023-04-15T18:03:13.559Z,102042.78
2023-04-15T18:05:42.429Z,102057.72
2023-04-15T18:08:09.501Z,102039.06
2023-04-15T18:10:36.891Z,102052.56
2023-04-15T18:13:03.467Z,102026.31
2023-04-15T18:15:31.240Z,102050.88
2023-04-15T18:18:01.173Z,102037.09
2023-04-15T18:20:28.067Z,102062.66
2023-04-15T18:22:54.657Z,102062.94
2023-04-15T18:25:21.288Z,102075.28
2023-04-15T18:27:47.750Z,102075.28
2023-04-15T18:30:14.180Z,102076.00
2023-04-15T18:32:41.122Z,102072.75
2023-04-15T18:35:08.042Z,102085.91
2023-04-15T18:37:34.705Z,102067.56
2023-04-15T18:40:01.342Z,102105.84
2023-04-15T18:42:27.788Z,102099.94
2023-04-15T18:44:54.602Z,102104.94
2023-04-15T18:47:21.212Z,102107.34
2023-04-15T18:49:47.716Z,102118.28
2023-04-15T18:52:14.175Z,102103.28
2023-04-15T18:54:40.601Z,102077.84
2023-04-15T18:57:07.228Z,102123.53
2023-04-15T18:59:34.007Z,102108.91
2023-04-15T19:02:01.421Z,102125.34
2023-04-15T19:04:29.377Z,102109.31
2023-04-15T19:06:57.286Z,102107.44
2023-04-15T19:09:23.718Z,102106.28
2023-04-15T19:11:50.367Z,102117.84
2023-04-15T19:14:17.759Z,102132.75
2023-04-15T19:16:44.228Z,102117.56
2023-04-15T19:19:10.651Z,102142.31
2023-04-15T19:21:37.072Z,102123.88
2023-04-15T19:24:03.640Z,102127.44
2023-04-15T19:26:30.201Z,102147.25
2023-04-15T19:28:58.911Z,102140.69
2023-04-15T19:31:26.203Z,102137.28
2023-04-15T19:33:52.920Z,102113.47
2023-04-15T19:36:19.453Z,102128.66
2023-04-15T19:38:46.005Z,102135.41
2023-04-15T19:41:12.523Z,102157.47
2023-04-15T19:43:38.926Z,102139.91
2023-04-15T19:46:06.432Z,102144.78
2023-04-15T19:48:32.966Z,102114.41
2023-04-15T19:50:59.817Z,102160.09
2023-04-15T19:53:26.401Z,102154.38
2023-04-15T19:55:52.796Z,102155.19
2023-04-15T19:58:19.183Z,102133.44
2023-04-15T20:00:45.600Z,102157.34
2023-04-15T20:03:12.158Z,102163.81
2023-04-15T20:05:38.691Z,102168.59
2023-04-15T20:08:05.189Z,102149.66
2023-04-15T20:10:31.957Z,102141.97
2023-04-15T20:12:58.469Z,102167.50
2023-04-15T20:15:25.016Z,102160.44
2023-04-15T20:17:51.701Z,102173.53
2023-04-15T20:20:18.511Z,102161.13
2023-04-15T20:22:44.930Z,102166.66
2023-04-15T20:25:11.473Z,102115.34
2023-04-15T20:27:37.950Z,102163.66
2023-04-15T20:30:05.096Z,102165.97
2023-04-15T20:32:35.254Z,102146.56
2023-04-15T20:35:03.341Z,102160.47
2023-04-15T20:37:30.973Z,102171.25
2023-04-15T20:39:57.410Z,102159.13
2023-04-15T20:42:23.816Z,102149.41
2023-04-15T20:44:50.491Z,102167.13
2023-04-15T20:47:17.058Z,102165.22
2023-04-15T20:49:43.617Z,102158.06
2023-04-15T20:52:10.589Z,102178.69
2023-04-15T20:54:37.027Z,102179.75
2023-04-15T20:57:03.568Z,102176.22
2023-04-15T20:59:30.486Z,102165.88
2023-04-15T21:01:57.450Z,102178.91
2023-04-15T21:04:24.485Z,102169.47
2023-04-15T21:06:52.576Z,102109.44
2023-04-15T21:09:19.129Z,102171.41
2023-04-15T21:12:00.346Z,102167.44
2023-04-15T21:14:27.346Z,102165.13
2023-04-15T21:16:53.827Z,102167.53
2023-04-15T21:19:20.209Z,102182.81
2023-04-15T21:21:46.616Z,102170.09
2023-04-15T21:24:13.036Z,102178.81
2023-04-15T21:26:39.428Z,102170.38
2023-04-15T21:29:07.854Z,102180.97
2023-04-15T21:31:36.047Z,102179.69
2023-04-15T21:34:02.547Z,102191.06
2023-04-15T21:36:28.991Z,102184.88
2023-04-15T21:38:55.385Z,102191.44
2023-04-15T21:41:21.831Z,102156.09
2023-04-15T21:43:48.435Z,102193.03
2023-04-15T21:46:23.090Z,102199.81
2023-04-15T21:48:53.152Z,102196.34
2023-04-15T21:51:19.980Z,102199.91
2023-04-15T21:53:46.764Z,102192.97
2023-04-15T21:56:13.268Z,102220.47
2023-04-15T21:58:39.683Z,102207.78
2023-04-15T22:01:06.450Z,102183.09
2023-04-15T22:03:34.527Z,102178.31
2023-04-15T22:06:04.431Z,102212.97
2023-04-15T22:08:44.550Z,102213.16
2023-04-15T22:11:27.412Z,102205.13
2023-04-15T22:13:54.671Z,102206.56
2023-04-15T22:16:21.178Z,102161.25
2023-04-15T22:18:47.674Z,102208.81
2023-04-15T22:21:14.448Z,102212.97
2023-04-15T22:23:40.947Z,102219.34
2023-04-15T22:26:07.710Z,102227.63
2023-04-15T22:28:34.120Z,102213.34
2023-04-15T22:31:00.611Z,102222.81
2023-04-15T22:33:27.063Z,102233.06
2023-04-15T22:35:53.465Z,102226.88
2023-04-15T22:38:19.880Z,102227.22
2023-04-15T22:40:46.452Z,102223.69
2023-04-15T22:43:12.868Z,102219.06
2023-04-15T22:45:39.265Z,102227.13
2023-04-15T22:48:05.875Z,102225.06
2023-04-15T22:50:32.351Z,102237.28
2023-04-15T22:52:58.762Z,102232.13
2023-04-15T22:55:25.232Z,102233.53
2023-04-15T22:57:52.671Z,102249.97
2023-04-15T23:00:19.278Z,102206.78
2023-04-15T23:02:46.107Z,102253.69
2023-04-15T23:05:13.297Z,102245.16
2023-04-15T23:07:40.147Z,102268.53
2023-04-15T23:10:08.062Z,102259.16
2023-04-15T23:12:34.875Z,102254.66
2023-04-15T23:15:01.310Z,102238.94
2023-04-15T23:17:27.771Z,102266.31
2023-04-15T23:19:54.224Z,102272.66
2023-04-15T23:22:20.727Z,102264.94
2023-04-15T23:24:47.112Z,102269.19
2023-04-15T23:27:13.504Z,102264.03
2023-04-15T23:29:40.008Z,102262.88
2023-04-15T23:32:06.704Z,102277.34
2023-04-15T23:34:33.217Z,102267.03
2023-04-15T23:36:59.617Z,102274.25
2023-04-15T23:39:26.513Z,102264.38
2023-04-15T23:41:53.298Z,102275.38
2023-04-15T23:44:20.329Z,102278.06
2023-04-15T23:46:46.786Z,102279.69
2023-04-15T23:49:13.358Z,102266.25
2023-04-15T23:51:39.773Z,102265.09
2023-04-15T23:54:06.225Z,102263.53
2023-04-15T23:56:32.599Z,102268.41
2023-04-15T23:58:59.009Z,102287.22
